Time;durP1;ratioP1;P1;durP2;ratioP2;P2;SDS_P1;SDS_P2;PMS_P1;PMS_P2;Temp;Humidity;BMP_temperature;BMP_pressure;BME280_temperature;BME280_humidity;BME280_pressure;Samples;Min_cycle;Max_cycle;Signal;HPM_P1;HPM_P2
2021/03/19 00:00:08;;;;;;;9.23;5.83;;;;;;;-0.83;75.98;99746.95;1735071;82;21111;-76
2021/03/19 00:02:38;;;;;;;10.00;6.87;;;;;;;-0.77;75.98;99740.52;1734213;82;21301;-75
2021/03/19 00:05:10;;;;;;;9.48;6.87;;;;;;;-0.74;75.96;99743.08;1715517;82;21425;-75
2021/03/19 00:07:46;;;;;;;10.30;7.67;;;;;;;-0.73;75.97;99744.81;1768779;80;21107;-76
2021/03/19 00:10:18;;;;;;;9.13;6.28;;;;;;;-0.65;76.08;99743.92;1742101;81;21152;-74
2021/03/19 00:12:46;;;;;;;10.25;6.67;;;;;;;-0.63;75.96;99737.09;1765534;80;21181;-75
2021/03/19 00:15:17;;;;;;;6.80;5.62;;;;;;;-0.69;75.94;99738.80;1736155;82;21666;-76
2021/03/19 00:17:44;;;;;;;8.60;6.35;;;;;;;-0.72;75.96;99744.38;1733009;82;21198;-75
2021/03/19 00:20:13;;;;;;;8.70;6.47;;;;;;;-0.77;76.01;99737.96;1734692;82;21123;-74
2021/03/19 00:22:40;;;;;;;9.25;6.58;;;;;;;-0.77;76.08;99737.96;1731740;82;21267;-75
2021/03/19 00:25:09;;;;;;;13.72;8.03;;;;;;;-0.78;76.10;99738.83;1739217;82;21265;-73
2021/03/19 00:27:36;;;;;;;10.98;7.65;;;;;;;-0.78;76.23;99731.13;1734744;82;21209;-75
2021/03/19 00:30:07;;;;;;;11.05;8.33;;;;;;;-0.74;76.31;99727.70;1737977;81;21217;-75
2021/03/19 00:32:36;;;;;;;9.40;7.22;;;;;;;-0.70;76.31;99727.26;1742220;81;21068;-75
2021/03/19 00:35:04;;;;;;;11.73;7.30;;;;;;;-0.68;76.33;99723.83;1744039;81;21089;-75
2021/03/19 00:37:32;;;;;;;12.45;8.00;;;;;;;-0.65;76.36;99728.55;1750363;80;21140;-75
2021/03/19 00:39:58;;;;;;;10.68;7.90;;;;;;;-0.66;76.31;99724.28;1743422;81;21167;-75
2021/03/19 00:42:26;;;;;;;14.30;8.43;;;;;;;-0.72;76.26;99718.30;1746468;81;21243;-75
2021/03/19 00:44:54;;;;;;;11.55;7.55;;;;;;;-0.75;76.27;99726.00;1768373;79;21063;-75
2021/03/19 00:47:20;;;;;;;;;;;;;;;-0.78;76.36;99728.57;1746981;80;21170;-75
2021/03/19 00:49:47;;;;;;;17.10;9.90;;;;;;;-0.83;76.49;99720.03;1744318;82;20306;-74
2021/03/19 00:52:14;;;;;;;13.03;9.25;;;;;;;-0.83;76.50;99725.16;1747736;81;21139;-75
2021/03/19 00:54:41;;;;;;;14.13;9.13;;;;;;;-0.85;76.53;99708.91;1744252;80;22181;-75
2021/03/19 00:57:08;;;;;;;14.58;10.23;;;;;;;-0.86;76.56;99714.91;1738450;81;21074;-75
2021/03/19 00:59:35;;;;;;;17.48;12.28;;;;;;;-0.88;76.60;99708.92;1735558;80;21054;-75
2021/03/19 01:02:02;;;;;;;14.70;9.70;;;;;;;-0.87;76.67;99707.20;1736155;81;21018;-76
2021/03/19 01:04:29;;;;;;;13.15;8.65;;;;;;;-0.89;76.69;99707.22;1736543;81;21207;-76
2021/03/19 01:06:56;;;;;;;11.30;7.80;;;;;;;-0.92;76.61;99704.67;1740259;81;22415;-76
2021/03/19 01:09:23;;;;;;;11.63;7.87;;;;;;;-1.00;76.54;99708.94;1738156;81;21157;-76
2021/03/19 01:11:51;;;;;;;14.25;9.03;;;;;;;-1.13;76.61;99713.20;1737637;80;21610;-76
2021/03/19 01:14:18;;;;;;;12.98;9.23;;;;;;;-1.19;76.76;99705.09;1739601;81;21198;-76
2021/03/19 01:16:45;;;;;;;12.25;8.85;;;;;;;-1.16;76.97;99708.93;1738328;81;21211;-74
2021/03/19 01:19:12;;;;;;;14.25;8.13;;;;;;;-1.09;77.11;99711.48;1738286;81;21305;-75
2021/03/19 01:21:40;;;;;;;11.95;8.05;;;;;;;-1.07;76.96;99711.06;1764372;80;21280;-75
2021/03/19 01:24:08;;;;;;;10.40;7.05;;;;;;;-1.10;76.93;99709.79;1744021;81;21172;-75
2021/03/19 01:26:35;;;;;;;12.93;7.37;;;;;;;-1.10;77.02;99713.20;1739935;81;21202;-75
2021/03/19 01:29:07;;;;;;;15.38;8.30;;;;;;;-1.11;76.97;99709.38;1738212;81;21559;-75
2021/03/19 01:31:34;;;;;;;11.15;7.75;;;;;;;-1.14;77.04;99705.95;1733559;81;21300;-75
2021/03/19 01:34:01;;;;;;;8.08;6.47;;;;;;;-1.14;77.12;99707.23;1741838;81;21178;-75
2021/03/19 01:36:28;;;;;;;9.95;6.30;;;;;;;-1.16;77.20;99706.37;1735484;81;21655;-75
2021/03/19 01:41:51;;;;;;;7.33;4.85;;;;;;;-1.24;77.50;99708.07;1708413;81;21309;-75
2021/03/19 01:45:05;;;;;;;6.47;4.50;;;;;;;-1.26;77.66;99709.80;1738885;81;22192;-76
2021/03/19 01:48:28;;;;;;;5.70;4.12;;;;;;;-1.26;78.19;99714.92;1731928;81;21261;-74
2021/03/19 01:51:52;;;;;;;4.08;2.95;;;;;;;-1.28;78.85;99714.06;1753264;80;21168;-75
2021/03/19 01:55:15;;;;;;;3.45;2.40;;;;;;;-1.31;78.70;99709.38;1753078;80;21233;-74
2021/03/19 01:58:38;;;;;;;4.58;3.20;;;;;;;-1.33;78.36;99708.08;1754006;80;21137;-76
2021/03/19 02:02:01;;;;;;;3.85;3.25;;;;;;;-1.33;78.25;99702.11;1754147;81;21651;-75
2021/03/19 02:05:24;;;;;;;4.50;3.83;;;;;;;-1.35;78.79;99708.06;1753707;80;21249;-74
2021/03/19 02:08:47;;;;;;;4.53;3.40;;;;;;;-1.36;78.82;99709.36;1736503;81;21694;-76
2021/03/19 02:12:10;;;;;;;4.58;3.60;;;;;;;-1.39;79.83;99713.20;1731775;81;21147;-76
2021/03/19 02:15:33;;;;;;;6.28;4.80;;;;;;;-1.41;79.52;99704.66;1731748;82;21146;-77
2021/03/19 02:18:42;;;;;;;4.20;3.60;;;;;;;-1.42;78.77;99705.52;1736151;81;21394;-77
2021/03/19 02:22:05;;;;;;;7.33;4.70;;;;;;;-1.39;79.23;99705.52;1685910;83;21217;-74
2021/03/19 02:25:28;;;;;;;6.60;4.83;;;;;;;-1.38;78.94;99707.22;1683105;82;21311;-74
2021/03/19 02:28:51;;;;;;;5.85;4.47;;;;;;;-1.36;78.87;99713.20;1649984;84;21274;-75
2021/03/19 02:31:19;;;;;;;6.85;4.45;;;;;;;-1.34;79.88;99711.50;1648055;84;21671;-75
2021/03/19 02:34:01;;;;;;;6.60;4.05;;;;;;;-1.37;79.52;99710.22;1648637;84;21689;-76
2021/03/19 02:36:29;;;;;;;6.03;4.37;;;;;;;-1.36;79.47;99710.64;1652555;84;21305;-76
2021/03/19 02:38:56;;;;;;;6.92;5.12;;;;;;;-1.33;79.75;99718.75;1644279;85;21286;-76
2021/03/19 02:41:24;;;;;;;6.70;5.05;;;;;;;-1.33;79.57;99720.89;1657171;83;21677;-75
2021/03/19 02:43:51;;;;;;;6.97;4.47;;;;;;;-1.34;79.49;99716.63;1670623;84;21714;-75
2021/03/19 02:46:18;;;;;;;8.40;5.12;;;;;;;-1.33;79.93;99716.20;1695283;82;21640;-75
2021/03/19 02:48:45;;;;;;;5.45;3.87;;;;;;;-1.36;79.66;99714.48;1683788;82;21173;-75
2021/03/19 02:51:12;;;;;;;6.47;4.15;;;;;;;-1.38;80.04;99717.46;1691023;82;21402;-76
2021/03/19 02:53:39;;;;;;;9.10;3.62;;;;;;;-1.39;79.62;99712.77;1694334;83;21244;-74
2021/03/19 02:56:10;;;;;;;6.22;3.90;;;;;;;-1.39;79.61;99710.64;1668878;84;21252;-75
2021/03/19 02:58:38;;;;;;;4.10;3.10;;;;;;;-1.40;79.51;99711.47;1675317;83;21230;-76
2021/03/19 03:01:05;;;;;;;;;;;;;;;-1.39;79.50;99720.89;1704070;82;21233;-75
2021/03/19 03:03:34;;;;;;;6.28;3.33;;;;;;;-1.40;79.82;99715.31;1708145;82;20396;-76
2021/03/19 03:06:02;;;;;;;3.62;2.72;;;;;;;-1.40;79.89;99714.03;1709832;83;21035;-75
2021/03/19 03:08:32;;;;;;;3.87;2.40;;;;;;;-1.40;80.03;99714.03;1708187;83;21256;-75
2021/03/19 03:11:00;;;;;;;5.05;2.20;;;;;;;-1.41;79.84;99709.77;1712402;83;22640;-74
2021/03/19 03:13:27;;;;;;;2.70;1.95;;;;;;;-1.41;80.39;99714.90;1716110;82;21138;-75
2021/03/19 03:15:55;;;;;;;1.95;1.35;;;;;;;-1.40;80.77;99723.00;1706487;82;21206;-76
2021/03/19 03:18:22;;;;;;;3.50;1.42;;;;;;;-1.40;81.22;99719.16;1710214;82;21190;-76
2021/03/19 03:20:56;;;;;;;2.62;1.60;;;;;;;-1.40;81.46;99716.59;1710107;82;21185;-76
2021/03/19 03:23:26;;;;;;;4.20;2.22;;;;;;;-1.40;81.13;99733.24;1708413;83;21208;-76
2021/03/19 03:25:53;;;;;;;3.95;1.77;;;;;;;-1.41;81.51;99732.83;1710883;83;21174;-75
2021/03/19 03:28:23;;;;;;;4.05;1.67;;;;;;;-1.41;82.08;99735.39;1704569;82;21194;-75
2021/03/19 03:30:57;;;;;;;4.83;2.20;;;;;;;-1.43;82.57;99734.52;1752216;80;21160;-75
2021/03/19 03:33:25;;;;;;;2.85;1.32;;;;;;;-1.41;82.47;99739.23;1731374;80;21642;-75
2021/03/19 03:35:53;;;;;;;2.40;1.42;;;;;;;-1.40;82.45;99744.77;1720703;82;21222;-75
2021/03/19 03:38:24;;;;;;;4.45;1.50;;;;;;;-1.40;82.37;99744.77;1722733;81;21290;-75
2021/03/19 03:41:00;;;;;;;2.20;1.20;;;;;;;-1.42;83.33;99754.18;1724203;81;20992;-74
2021/03/19 03:43:28;;;;;;;3.52;1.00;;;;;;;-1.44;82.99;99743.06;1734188;81;21190;-74
2021/03/19 03:45:56;;;;;;;1.82;1.10;;;;;;;-1.47;82.49;99740.50;1730298;81;21062;-74
2021/03/19 03:48:28;;;;;;;3.72;1.05;;;;;;;-1.45;82.64;99749.05;1748949;80;21205;-75
2021/03/19 03:50:57;;;;;;;3.92;1.02;;;;;;;-1.46;82.44;99747.33;1732149;81;21589;-74
2021/03/19 03:53:23;;;;;;;1.60;1.30;;;;;;;-1.47;81.85;99755.88;1732691;81;21111;-74
2021/03/19 03:55:51;;;;;;;1.35;0.98;;;;;;;-1.47;83.43;99740.50;1732890;81;21213;-73
2021/03/19 03:58:19;;;;;;;1.52;1.00;;;;;;;-1.48;82.67;99746.49;1732222;81;21187;-74
2021/03/19 04:00:48;;;;;;;4.20;1.40;;;;;;;-1.49;82.70;99756.28;1734892;81;21355;-74
2021/03/19 04:03:16;;;;;;;3.98;1.15;;;;;;;-1.51;82.87;99751.18;1729413;81;21661;-75
2021/03/19 04:05:46;;;;;;;2.83;1.50;;;;;;;-1.52;83.49;99752.44;1742726;81;21213;-74
2021/03/19 04:08:21;;;;;;;4.60;1.35;;;;;;;-1.51;82.42;99751.58;1748946;81;21144;-74
2021/03/19 04:10:50;;;;;;;2.80;1.40;;;;;;;-1.51;82.46;99755.42;1746152;80;21584;-75
2021/03/19 04:13:20;;;;;;;3.37;1.37;;;;;;;-1.50;82.65;99757.15;1749226;80;21544;-74
2021/03/19 04:15:50;;;;;;;2.20;1.50;;;;;;;-1.51;82.58;99755.42;1750204;81;21105;-72
2021/03/19 04:18:19;;;;;;;1.62;1.20;;;;;;;-1.52;82.79;99765.25;1714626;81;21213;-74
2021/03/19 04:20:50;;;;;;;5.30;1.27;;;;;;;-1.53;83.21;99763.55;1749314;80;21114;-74
2021/03/19 04:23:18;;;;;;;2.50;1.32;;;;;;;-1.56;84.41;99763.55;1748171;80;21154;-74
2021/03/19 04:25:45;;;;;;;1.67;0.95;;;;;;;-1.56;83.23;99771.22;1731503;81;22399;-75
2021/03/19 04:28:20;;;;;;;2.40;1.17;;;;;;;-1.59;84.15;99769.51;1729090;81;21213;-75
2021/03/19 04:30:48;;;;;;;3.27;1.57;;;;;;;-1.65;84.58;99780.59;1728340;81;21126;-74
2021/03/19 04:33:22;;;;;;;1.75;1.50;;;;;;;-1.66;83.20;99784.41;1749417;81;21181;-73
2021/03/19 04:36:00;;;;;;;4.53;1.50;;;;;;;-1.68;83.65;99767.78;1714227;81;21192;-73
2021/03/19 04:38:29;;;;;;;3.30;1.35;;;;;;;-1.72;83.41;99783.96;1732065;82;21225;-73
2021/03/19 04:40:56;;;;;;;2.67;1.35;;;;;;;-1.74;83.71;99780.53;1731745;81;21181;-73
2021/03/19 04:43:23;;;;;;;2.47;1.22;;;;;;;-1.77;83.91;99795.89;1748806;81;25092;-74
2021/03/19 04:45:50;;;;;;;4.53;1.50;;;;;;;-1.78;83.59;99786.51;1743764;80;21186;-74
2021/03/19 04:48:17;;;;;;;3.25;1.40;;;;;;;-1.76;82.88;99789.05;1741450;80;21162;-72
2021/03/19 04:50:45;;;;;;;2.90;1.82;;;;;;;-1.76;83.26;99787.37;1727358;81;22258;-74
2021/03/19 04:53:12;;;;;;;3.00;2.12;;;;;;;-1.77;83.56;99790.77;1722027;81;21282;-74
2021/03/19 04:55:40;;;;;;;4.03;1.70;;;;;;;-1.77;83.08;99790.77;1737761;80;21703;-74
2021/03/19 04:58:06;;;;;;;5.17;1.95;;;;;;;-1.74;82.58;99779.69;1704480;82;21252;-74
2021/03/19 05:00:33;;;;;;;4.87;2.10;;;;;;;-1.73;82.99;99802.74;1742721;80;21232;-73
2021/03/19 05:03:00;;;;;;;4.05;1.70;;;;;;;-1.72;82.84;99791.64;1708790;82;21644;-73
2021/03/19 05:05:31;;;;;;;5.70;1.77;;;;;;;-1.71;82.84;99795.94;1733744;81;21602;-78
2021/03/19 05:07:59;;;;;;;5.05;2.00;;;;;;;-1.71;82.63;99790.81;1747232;80;21671;-74
2021/03/19 05:10:34;;;;;;;4.85;2.05;;;;;;;-1.70;83.41;99788.67;1746872;80;21209;-75
2021/03/19 05:13:02;;;;;;;4.08;2.20;;;;;;;-1.70;83.59;99795.50;1749511;80;21213;-74
2021/03/19 05:15:32;;;;;;;3.67;2.33;;;;;;;-1.69;82.97;99795.92;1735140;81;21214;-74
2021/03/19 05:17:59;;;;;;;3.80;2.12;;;;;;;-1.67;82.71;99799.34;1733200;81;21391;-74
2021/03/19 05:20:28;;;;;;;4.97;1.90;;;;;;;-1.63;82.66;99801.05;1727473;81;21216;-74
2021/03/19 05:22:56;;;;;;;3.83;2.05;;;;;;;-1.61;82.61;99791.69;1746478;80;21647;-75
2021/03/19 05:25:28;;;;;;;3.62;2.22;;;;;;;-1.59;82.65;99797.67;1750239;80;21125;-74
2021/03/19 05:27:56;;;;;;;3.72;1.70;;;;;;;-1.60;83.78;99807.06;1749899;80;22393;-76
2021/03/19 05:30:24;;;;;;;;;;;;;;;-1.58;82.64;99828.39;1752826;80;21149;-76
2021/03/19 05:32:52;;;;;;;2.42;1.57;;;;;;;-1.57;82.71;99830.52;1750009;81;20521;-76
2021/03/19 05:35:21;;;;;;;;;;;;;;;-1.63;83.12;99837.75;1752906;80;21161;-77
2021/03/19 05:37:49;;;;;;;5.92;2.15;;;;;;;-1.70;83.71;99837.74;1750208;80;20934;-76
2021/03/19 05:40:25;;;;;;;3.87;2.40;;;;;;;-1.71;82.76;99834.34;1751128;80;21203;-75
2021/03/19 05:42:52;;;;;;;4.78;1.77;;;;;;;-1.72;82.80;99837.72;1742216;81;21556;-73
2021/03/19 05:45:29;;;;;;;5.22;2.95;;;;;;;-1.72;82.84;99836.44;1720019;81;21219;-72
2021/03/19 05:47:59;;;;;;;3.72;2.30;;;;;;;-1.74;82.71;99845.81;1724165;81;21106;-74
2021/03/19 05:50:33;;;;;;;4.97;2.20;;;;;;;-1.73;82.35;99848.82;1756674;80;21259;-75
2021/03/19 05:53:22;;;;;;;7.35;2.92;;;;;;;-1.72;82.19;99853.08;1751224;81;21212;-74
2021/03/19 05:55:49;;;;;;;7.22;2.42;;;;;;;-1.69;82.11;99853.52;1751912;80;21216;-76
2021/03/19 05:58:29;;;;;;;4.67;1.90;;;;;;;-1.74;81.96;99868.84;1751162;80;21020;-74
2021/03/19 06:00:58;;;;;;;5.03;2.55;;;;;;;-1.76;81.92;99869.29;1751812;80;21192;-76
2021/03/19 06:03:25;;;;;;;5.15;2.17;;;;;;;-1.77;81.70;99862.44;1745802;80;21224;-75
2021/03/19 06:06:03;;;;;;;3.67;2.55;;;;;;;-1.80;81.64;99886.74;1752957;80;21239;-75
2021/03/19 06:08:35;;;;;;;5.80;2.27;;;;;;;-1.87;81.46;99869.66;1756299;80;21191;-74
2021/03/19 06:11:25;;;;;;;5.35;2.60;;;;;;;-1.96;81.20;99877.27;1750516;80;21066;-74
2021/03/19 06:14:05;;;;;;;5.10;2.20;;;;;;;-1.95;81.29;99882.83;1707197;82;21307;-74
2021/03/19 06:16:45;;;;;;;6.12;2.00;;;;;;;-1.98;80.93;99886.23;1713866;82;21236;-74
2021/03/19 06:19:39;;;;;;;6.40;2.10;;;;;;;-1.94;80.90;99907.14;1713640;82;22643;-71
2021/03/19 06:22:20;;;;;;;4.62;1.77;;;;;;;-1.89;80.75;99905.89;1675899;84;21787;-81
2021/03/19 06:24:59;;;;;;;5.12;1.70;;;;;;;-1.83;80.64;99890.56;1680196;84;21250;-79
2021/03/19 06:27:51;;;;;;;3.95;1.42;;;;;;;-1.67;79.87;99892.36;1794737;78;21095;-81
2021/03/19 06:30:30;;;;;;;5.03;1.50;;;;;;;-1.77;77.95;99900.84;1760761;80;21228;-82
2021/03/19 06:33:14;;;;;;;4.75;1.55;;;;;;;-1.62;79.26;99907.33;1767236;80;21196;-80
2021/03/19 06:35:47;;;;;;;4.65;2.08;;;;;;;-1.02;79.86;99929.34;1768612;79;21089;-83
2021/03/19 06:38:35;;;;;;;3.55;1.90;;;;;;;-0.80;78.58;99922.56;1767704;79;21614;-79
2021/03/19 06:41:18;;;;;;;;;;;;;;;-0.82;77.00;99924.25;1769273;79;21006;-80
2021/03/19 06:43:46;;;;;;;3.10;1.90;;;;;;;-0.53;75.42;99937.58;1764418;80;20251;-79
2021/03/19 06:46:26;;;;;;;3.33;1.70;;;;;;;-0.08;77.77;99934.59;1764047;79;21198;-79
2021/03/19 06:49:00;;;;;;;3.70;1.27;;;;;;;-0.13;76.50;99929.88;1768042;80;21699;-82
2021/03/19 06:51:33;;;;;;;2.95;1.40;;;;;;;-0.26;76.24;99954.25;1767655;79;21181;-79
2021/03/19 06:54:14;;;;;;;3.33;1.02;;;;;;;-0.34;76.45;99945.69;1770403;79;21659;-81
2021/03/19 06:57:03;;;;;;;3.33;1.75;;;;;;;-0.39;76.35;99936.27;1760200;79;21850;-80
2021/03/19 06:59:50;;;;;;;4.75;1.57;;;;;;;-0.60;73.22;99949.95;1769302;79;21422;-80
2021/03/19 07:02:52;;;;;;;5.35;1.42;;;;;;;-0.48;75.89;99949.95;1768525;79;21159;-80
2021/03/19 07:05:38;;;;;;;3.25;1.50;;;;;;;-0.10;74.43;99972.23;1769082;79;21531;-82
2021/03/19 07:08:34;;;;;;;2.80;1.57;;;;;;;-0.05;71.10;99970.52;1754034;80;21195;-80
2021/03/19 07:11:09;;;;;;;3.52;1.40;;;;;;;0.26;73.92;99973.06;1767001;79;21296;-77
2021/03/19 07:13:42;;;;;;;3.77;1.37;;;;;;;0.34;70.88;99972.63;1708899;81;21323;-78
2021/03/19 07:16:26;;;;;;;3.15;1.65;;;;;;;0.37;72.53;99968.77;1708172;81;21721;-82
2021/03/19 07:19:27;;;;;;;3.05;1.20;;;;;;;0.55;71.97;99973.84;1671685;85;21192;-76
2021/03/19 07:22:14;;;;;;;4.35;1.10;;;;;;;0.62;72.58;99975.55;1684881;84;21260;-77
2021/03/19 07:24:52;;;;;;;1.62;0.80;;;;;;;0.42;69.70;100028.67;1683705;84;21219;-79
2021/03/19 07:27:47;;;;;;;4.45;0.98;;;;;;;0.08;65.29;100008.15;1704856;83;21247;-78
2021/03/19 07:30:29;;;;;;;3.12;1.00;;;;;;;0.11;69.19;100021.02;1696684;83;21259;-78
2021/03/19 07:33:20;;;;;;;2.72;0.98;;;;;;;0.10;70.32;100003.88;1701973;83;21368;-78
2021/03/19 07:36:05;;;;;;;2.37;0.90;;;;;;;-0.13;66.99;100003.03;1702529;83;21629;-78
2021/03/19 07:39:13;;;;;;;3.85;1.37;;;;;;;-0.08;64.87;100009.03;1818944;77;22390;-77
2021/03/19 07:42:04;;;;;;;3.12;0.70;;;;;;;-0.42;65.49;100043.63;1800098;78;21265;-78
2021/03/19 07:45:05;;;;;;;1.77;0.60;;;;;;;-0.36;65.17;100026.95;1793316;77;21525;-78
2021/03/19 07:47:55;;;;;;;3.30;1.22;;;;;;;-0.50;63.72;100026.92;1791665;78;21558;-78
2021/03/19 07:50:49;;;;;;;4.70;1.02;;;;;;;-0.02;67.96;100004.74;1790667;78;21038;-78
2021/03/19 07:53:40;;;;;;;10.03;1.37;;;;;;;0.51;67.51;100008.12;1764605;79;21262;-75
2021/03/19 07:58:48;;;;;;;2.98;1.15;;;;;;;0.09;61.92;100056.09;1870698;74;23542;-79
2021/03/19 08:01:56;;;;;;;2.00;1.00;;;;;;;0.07;64.29;100037.26;1843706;75;21553;-75
2021/03/19 08:04:44;;;;;;;2.10;1.02;;;;;;;0.08;60.96;100033.83;1843762;75;21192;-78
2021/03/19 08:07:17;;;;;;;;;;;;;;;-0.21;63.60;100059.91;1847988;75;21093;-77
2021/03/19 08:10:23;;;;;;;1.70;0.75;;;;;;;0.26;63.15;100055.25;1843951;76;20170;-76
2021/03/19 08:13:07;;;;;;;4.95;1.12;;;;;;;0.53;60.28;100071.91;1778612;78;21085;-77
2021/03/19 08:15:58;;;;;;;4.53;1.10;;;;;;;1.06;64.94;100025.95;1775661;78;21021;-78
2021/03/19 08:18:36;;;;;;;2.77;0.95;;;;;;;1.09;63.78;100055.54;1773170;79;21660;-77
2021/03/19 08:21:31;;;;;;;3.17;0.88;;;;;;;0.83;60.70;100030.32;1774527;79;21059;-76
2021/03/19 08:25:11;;;;;;;2.00;0.75;;;;;;;-0.05;60.87;100062.94;1824537;77;21889;-75
2021/03/19 08:28:01;;;;;;;2.35;0.88;;;;;;;-0.39;60.86;100044.91;1796540;78;21188;-76
2021/03/19 08:31:02;;;;;;;5.97;1.00;;;;;;;-0.49;60.66;100095.31;1798193;77;21712;-76
2021/03/19 08:34:04;;;;;;;2.90;0.88;;;;;;;-0.57;57.32;100058.52;1751008;80;21100;-77
2021/03/19 08:36:50;;;;;;;2.17;0.82;;;;;;;-0.52;57.56;100053.42;1746069;80;21241;-81
2021/03/19 08:39:43;;;;;;;2.17;0.70;;;;;;;-0.36;62.68;100065.44;1747748;80;22209;-77
2021/03/19 08:42:23;;;;;;;2.62;1.00;;;;;;;-0.02;56.64;100129.69;1768255;78;24675;-76
2021/03/19 08:44:50;;;;;;;2.08;0.72;;;;;;;0.07;61.32;100073.20;1735651;80;21187;-77
2021/03/19 08:47:38;;;;;;;1.77;0.80;;;;;;;0.42;60.82;100067.20;1738430;81;21889;-76
2021/03/19 08:50:22;;;;;;;5.20;0.98;;;;;;;0.12;58.01;100129.71;1738165;81;21090;-79
2021/03/19 08:53:13;;;;;;;1.85;0.88;;;;;;;0.37;59.61;100085.64;1738733;80;21235;-78
2021/03/19 08:55:51;;;;;;;2.52;0.90;;;;;;;0.28;57.57;100061.22;1737875;80;21108;-77
2021/03/19 08:58:35;;;;;;;3.30;1.30;;;;;;;0.32;59.61;100043.25;1735509;81;21028;-80
2021/03/19 09:01:08;;;;;;;2.40;0.68;;;;;;;0.78;60.18;100078.31;1730315;81;21614;-79
2021/03/19 09:03:50;;;;;;;2.33;0.93;;;;;;;0.78;58.63;100107.44;1735989;80;21486;-76
2021/03/19 09:06:25;;;;;;;1.87;0.98;;;;;;;1.20;57.85;100061.91;1736580;80;21043;-78
2021/03/19 09:09:15;;;;;;;3.00;1.05;;;;;;;1.47;57.39;100099.54;1732734;81;21227;-81
2021/03/19 09:11:53;;;;;;;3.45;0.85;;;;;;;1.10;56.52;100099.67;1730984;81;21254;-81
2021/03/19 09:14:41;;;;;;;3.65;1.40;;;;;;;1.50;59.58;100071.22;1738947;81;21215;-80
2021/03/19 09:17:49;;;;;;;2.22;1.05;;;;;;;1.69;56.73;100089.16;1785359;77;29156;-74
2021/03/19 09:21:01;;;;;;;2.58;1.02;;;;;;;0.94;54.79;100077.86;1764662;79;21076;-79
2021/03/19 09:23:33;;;;;;;3.10;0.95;;;;;;;0.32;56.42;100096.34;1769058;80;22133;-75
2021/03/19 09:26:21;;;;;;;1.15;0.53;;;;;;;-0.08;59.46;100086.03;1758218;79;21044;-77
2021/03/19 09:29:17;;;;;;;2.42;1.10;;;;;;;-0.43;58.71;100082.94;1739744;80;21836;-78
2021/03/19 09:31:55;;;;;;;3.00;1.07;;;;;;;-0.59;60.58;100092.70;1738528;81;21212;-76
2021/03/19 09:34:45;;;;;;;1.52;0.80;;;;;;;-0.57;60.49;100083.32;1737002;81;21100;-76
2021/03/19 09:40:44;;;;;;;2.77;1.00;;;;;;;0.43;61.19;100084.35;1801648;78;22233;-76
2021/03/19 09:43:39;;;;;;;4.53;1.42;;;;;;;0.94;60.61;100083.85;1773405;78;21044;-77
2021/03/19 09:46:26;;;;;;;3.55;1.20;;;;;;;0.75;58.74;100086.03;1766528;78;21400;-78
2021/03/19 09:49:08;;;;;;;2.80;1.07;;;;;;;1.25;57.50;100100.05;1763155;80;21688;-79
2021/03/19 09:51:43;;;;;;;2.75;1.07;;;;;;;1.34;58.22;100079.86;1766572;79;21611;-78
2021/03/19 09:54:29;;;;;;;3.60;0.90;;;;;;;1.67;59.50;100092.16;1764102;79;22262;-78
2021/03/19 09:57:03;;;;;;;3.10;1.00;;;;;;;1.97;58.72;100090.70;1767057;80;21068;-77
2021/03/19 09:59:34;;;;;;;4.30;1.25;;;;;;;1.79;56.76;100093.37;1764401;79;22286;-78
2021/03/19 10:02:05;;;;;;;3.65;1.30;;;;;;;0.98;56.34;100102.28;1773350;80;21083;-77
2021/03/19 10:04:37;;;;;;;2.70;0.60;;;;;;;0.02;57.48;100113.41;1766181;78;21105;-78
2021/03/19 10:07:18;;;;;;;3.40;0.93;;;;;;;-0.20;58.75;100119.35;1773453;79;21211;-78
2021/03/19 10:09:56;;;;;;;3.17;1.07;;;;;;;-0.18;58.49;100128.77;1766933;80;21485;-77
2021/03/19 10:12:32;;;;;;;2.15;0.80;;;;;;;-0.09;59.21;100120.23;1769654;80;21628;-75
2021/03/19 10:15:20;;;;;;;1.98;0.90;;;;;;;0.07;60.47;100116.86;1766121;79;21901;-76
2021/03/19 10:17:53;;;;;;;1.85;1.00;;;;;;;0.14;58.05;100141.70;1766001;80;21636;-77
2021/03/19 10:20:33;;;;;;;2.95;0.90;;;;;;;-0.09;58.97;100140.77;1770408;79;21221;-76
2021/03/19 10:23:28;;;;;;;1.85;0.70;;;;;;;-0.06;59.77;100148.48;1764531;79;21850;-76
2021/03/19 10:26:15;;;;;;;2.30;0.75;;;;;;;-0.76;63.80;100147.33;1769668;80;21204;-76
2021/03/19 10:28:49;;;;;;;2.40;0.90;;;;;;;-1.20;63.68;100175.27;1772015;79;21204;-77
2021/03/19 10:31:22;;;;;;;2.87;1.12;;;;;;;-1.25;63.16;100141.91;1767361;79;21210;-76
2021/03/19 10:34:03;;;;;;;3.58;1.10;;;;;;;-0.83;63.63;100149.45;1766952;80;22049;-75
2021/03/19 10:36:48;;;;;;;2.83;1.10;;;;;;;-0.45;63.49;100139.79;1768494;80;21171;-75
2021/03/19 10:39:42;;;;;;;2.90;1.32;;;;;;;0.24;63.27;100139.14;1758199;79;21668;-75
2021/03/19 10:42:28;;;;;;;2.85;1.20;;;;;;;0.40;61.47;100155.00;1750458;81;21258;-75
2021/03/19 10:45:17;;;;;;;4.08;0.93;;;;;;;-0.48;61.73;100151.33;1752357;80;21462;-75
2021/03/19 10:48:01;;;;;;;4.42;2.00;;;;;;;-0.29;62.88;100139.00;1750744;81;22246;-75
2021/03/19 10:50:36;;;;;;;4.85;1.60;;;;;;;0.09;62.42;100125.42;1751197;81;23116;-75
2021/03/19 10:53:14;;;;;;;4.15;1.92;;;;;;;0.84;62.23;100118.14;1750385;81;21274;-76
2021/03/19 10:55:46;;;;;;;3.95;1.70;;;;;;;1.48;62.10;100126.97;1742757;81;21234;-74
2021/03/19 10:58:37;;;;;;;4.95;1.80;;;;;;;1.51;58.29;100114.53;1745468;80;21092;-75
2021/03/19 11:01:27;;;;;;;2.58;1.15;;;;;;;0.98;57.16;100135.72;1751564;80;21225;-75
2021/03/19 11:03:55;;;;;;;4.03;1.35;;;;;;;0.66;59.85;100122.88;1744835;81;21749;-75
2021/03/19 11:06:41;;;;;;;3.98;0.88;;;;;;;-0.10;60.69;100182.27;1749678;80;21267;-74
2021/03/19 11:09:16;;;;;;;3.00;0.80;;;;;;;-0.59;61.37;100188.89;1751083;80;21680;-73
2021/03/19 11:11:48;;;;;;;3.62;0.70;;;;;;;-0.80;63.51;100169.97;1749842;80;21163;-76
2021/03/19 11:14:20;;;;;;;2.60;0.90;;;;;;;-0.95;62.46;100158.36;1752662;80;21274;-73
2021/03/19 11:16:51;;;;;;;0.80;0.50;;;;;;;-1.08;62.45;100161.68;1752189;80;21105;-75
2021/03/19 11:19:23;;;;;;;4.40;1.10;;;;;;;-1.05;62.38;100169.38;1726366;81;21295;-74
2021/03/19 11:22:03;;;;;;;5.10;1.65;;;;;;;-0.82;62.61;100149.87;1747081;81;21643;-75
2021/03/19 11:24:37;;;;;;;5.58;2.08;;;;;;;-0.27;61.76;100150.13;1744481;81;21279;-76
2021/03/19 11:27:21;;;;;;;3.92;1.30;;;;;;;0.05;60.86;100142.09;1752507;81;21276;-79
2021/03/19 11:30:11;;;;;;;1.67;1.00;;;;;;;0.33;61.58;100163.55;1753602;81;21555;-78
2021/03/19 11:32:39;;;;;;;3.70;0.95;;;;;;;0.78;61.19;100152.85;1707581;82;21737;-77
2021/03/19 11:35:16;;;;;;;;;;;;;;;0.64;59.77;100161.45;1711274;83;21286;-80
2021/03/19 11:37:46;;;;;;;2.00;0.98;;;;;;;0.09;57.84;100151.10;1702868;83;20236;-77
2021/03/19 11:40:26;;;;;;;2.17;0.80;;;;;;;0.12;59.24;100151.10;1699402;82;21309;-78
2021/03/19 11:42:59;;;;;;;6.22;1.67;;;;;;;-0.26;60.33;100169.80;1655972;85;21638;-78
2021/03/19 11:45:30;;;;;;;3.60;1.02;;;;;;;-0.69;61.28;100175.17;1646507;85;21267;-76
2021/03/19 11:48:13;;;;;;;2.55;1.07;;;;;;;-0.83;61.61;100175.52;1655316;85;21244;-78
2021/03/19 11:50:48;;;;;;;2.33;0.95;;;;;;;-0.86;61.80;100160.97;1647252;86;21719;-77
2021/03/19 11:53:23;;;;;;;4.33;1.02;;;;;;;-0.91;61.90;100166.48;1659964;85;21191;-77
2021/03/19 11:55:55;;;;;;;1.85;0.90;;;;;;;-0.79;62.14;100154.16;1657027;84;21271;-77
2021/03/19 11:58:27;;;;;;;2.87;1.27;;;;;;;-0.10;62.60;100141.64;1661071;85;21613;-76
2021/03/19 12:00:54;;;;;;;3.00;1.10;;;;;;;0.61;61.13;100135.72;1647915;84;21230;-78
2021/03/19 12:03:38;;;;;;;5.97;1.35;;;;;;;0.83;59.40;100149.86;1661216;85;21219;-77
2021/03/19 12:06:08;;;;;;;1.92;0.80;;;;;;;0.36;58.58;100226.05;1649216;85;21287;-74
2021/03/19 12:08:39;;;;;;;3.83;1.57;;;;;;;-1.03;63.27;100154.88;1676065;83;21212;-75
2021/03/19 12:11:09;;;;;;;6.95;1.25;;;;;;;-2.03;67.54;100193.25;1648960;85;22413;-74
2021/03/19 12:13:36;;;;;;;3.00;1.02;;;;;;;-2.39;68.43;100205.59;1656217;85;21211;-72
2021/03/19 12:16:04;;;;;;;1.20;0.70;;;;;;;-2.59;70.11;100211.30;1662744;85;21203;-72
2021/03/19 12:18:32;;;;;;;1.62;0.70;;;;;;;-2.64;67.52;100250.00;1659339;85;21242;-73
2021/03/19 12:20:59;;;;;;;3.52;0.90;;;;;;;-2.80;67.94;100255.71;1657420;85;22481;-72
2021/03/19 12:23:27;;;;;;;2.20;1.00;;;;;;;-3.08;68.99;100213.55;1660408;85;21509;-73
2021/03/19 12:25:54;;;;;;;3.33;1.25;;;;;;;-3.08;68.99;100213.55;1656271;86;21262;-70
2021/03/19 12:28:24;;;;;;;4.37;1.27;;;;;;;-2.90;69.07;100201.48;1660543;84;21253;-73
2021/03/19 12:30:55;;;;;;;3.75;1.22;;;;;;;-2.44;67.81;100204.67;1653848;83;21184;-72